Terminal Aerodrome Forecast
Issued by NWS

Home | Current Version | Previous Version | Text Only | Print | Product List | Glossary On
Versions: 1 2 3 4 5 6 7 8 9 10 11 12 13 14 15
092
FTUS46 KLOX 260537
TAFWJF
TAF
KWJF 260537Z 2606/2706 28015G25KT P6SM BKN200
     FM261000 28012KT P6SM BKN200
     FM261700 29018G28KT P6SM BKN200
     FM262100 28028G38KT P6SM BKN200
     FM270500 28020G30KT P6SM BKN200=

USA.gov is the U.S. government's official web portal to all federal, state and local government web resources and services.